sensor_id;sensor_type;location;lat;lon;timestamp;P1;durP1;ratioP1;P2;durP2;ratioP2
27303;SDS011;14791;52.392;13.092;2023-03-08T00:01:38;1.40;;;1.30;;
27303;SDS011;14791;52.392;13.092;2023-03-08T00:04:08;1.20;;;1.20;;
27303;SDS011;14791;52.392;13.092;2023-03-08T00:06:37;1.93;;;1.37;;
27303;SDS011;14791;52.392;13.092;2023-03-08T00:09:06;1.03;;;1.03;;
27303;SDS011;14791;52.392;13.092;2023-03-08T00:11:36;1.23;;;1.23;;
27303;SDS011;14791;52.392;13.092;2023-03-08T00:14:05;1.33;;;1.30;;
27303;SDS011;14791;52.392;13.092;2023-03-08T00:16:34;1.07;;;1.07;;
27303;SDS011;14791;52.392;13.092;2023-03-08T00:19:03;1.50;;;1.50;;
27303;SDS011;14791;52.392;13.092;2023-03-08T00:21:31;1.60;;;1.50;;
27303;SDS011;14791;52.392;13.092;2023-03-08T00:24:01;1.93;;;1.83;;
27303;SDS011;14791;52.392;13.092;2023-03-08T00:26:30;1.30;;;1.27;;
27303;SDS011;14791;52.392;13.092;2023-03-08T00:28:59;1.77;;;1.50;;
27303;SDS011;14791;52.392;13.092;2023-03-08T00:31:28;1.80;;;1.70;;
27303;SDS011;14791;52.392;13.092;2023-03-08T00:33:56;1.50;;;1.50;;
27303;SDS011;14791;52.392;13.092;2023-03-08T00:36:25;1.40;;;1.40;;
27303;SDS011;14791;52.392;13.092;2023-03-08T00:38:55;1.80;;;1.70;;
27303;SDS011;14791;52.392;13.092;2023-03-08T00:41:24;1.47;;;1.43;;
27303;SDS011;14791;52.392;13.092;2023-03-08T00:43:54;2.10;;;2.00;;
27303;SDS011;14791;52.392;13.092;2023-03-08T00:46:23;1.97;;;1.87;;
27303;SDS011;14791;52.392;13.092;2023-03-08T00:48:52;1.90;;;1.80;;
27303;SDS011;14791;52.392;13.092;2023-03-08T00:51:21;2.03;;;1.93;;
27303;SDS011;14791;52.392;13.092;2023-03-08T00:53:50;1.50;;;1.50;;
27303;SDS011;14791;52.392;13.092;2023-03-08T00:56:19;1.90;;;1.80;;
27303;SDS011;14791;52.392;13.092;2023-03-08T00:58:48;2.17;;;2.07;;
27303;SDS011;14791;52.392;13.092;2023-03-08T01:01:17;2.20;;;2.10;;
27303;SDS011;14791;52.392;13.092;2023-03-08T01:03:48;2.40;;;2.20;;
27303;SDS011;14791;52.392;13.092;2023-03-08T01:06:17;2.33;;;2.20;;
27303;SDS011;14791;52.392;13.092;2023-03-08T01:08:46;2.70;;;2.50;;
27303;SDS011;14791;52.392;13.092;2023-03-08T01:11:21;2.67;;;2.57;;
27303;SDS011;14791;52.392;13.092;2023-03-08T01:13:52;2.60;;;2.50;;
27303;SDS011;14791;52.392;13.092;2023-03-08T01:16:22;2.53;;;2.40;;
27303;SDS011;14791;52.392;13.092;2023-03-08T01:18:54;2.20;;;2.10;;
27303;SDS011;14791;52.392;13.092;2023-03-08T01:21:27;2.97;;;2.67;;
27303;SDS011;14791;52.392;13.092;2023-03-08T01:23:55;2.43;;;2.33;;
27303;SDS011;14791;52.392;13.092;2023-03-08T01:26:27;3.17;;;2.97;;
27303;SDS011;14791;52.392;13.092;2023-03-08T01:28:56;2.73;;;2.53;;
27303;SDS011;14791;52.392;13.092;2023-03-08T01:31:27;3.30;;;3.00;;
27303;SDS011;14791;52.392;13.092;2023-03-08T01:33:58;2.57;;;2.47;;
27303;SDS011;14791;52.392;13.092;2023-03-08T01:36:27;2.60;;;2.50;;
27303;SDS011;14791;52.392;13.092;2023-03-08T01:38:58;4.77;;;2.83;;
27303;SDS011;14791;52.392;13.092;2023-03-08T01:41:28;3.60;;;3.30;;
27303;SDS011;14791;52.392;13.092;2023-03-08T01:44:00;2.93;;;2.73;;
27303;SDS011;14791;52.392;13.092;2023-03-08T01:46:30;2.97;;;2.77;;
27303;SDS011;14791;52.392;13.092;2023-03-08T01:51:50;4.37;;;3.20;;
27303;SDS011;14791;52.392;13.092;2023-03-08T01:54:22;3.93;;;3.63;;
27303;SDS011;14791;52.392;13.092;2023-03-08T01:57:08;3.10;;;3.00;;
27303;SDS011;14791;52.392;13.092;2023-03-08T01:59:34;2.70;;;2.50;;
27303;SDS011;14791;52.392;13.092;2023-03-08T02:02:04;3.30;;;3.10;;
27303;SDS011;14791;52.392;13.092;2023-03-08T02:04:35;3.30;;;3.10;;
27303;SDS011;14791;52.392;13.092;2023-03-08T02:07:08;3.63;;;3.30;;
27303;SDS011;14791;52.392;13.092;2023-03-08T02:09:36;3.20;;;2.90;;
27303;SDS011;14791;52.392;13.092;2023-03-08T02:12:07;3.27;;;3.17;;
27303;SDS011;14791;52.392;13.092;2023-03-08T02:14:39;3.40;;;3.10;;
27303;SDS011;14791;52.392;13.092;2023-03-08T02:17:09;3.43;;;3.23;;
27303;SDS011;14791;52.392;13.092;2023-03-08T02:19:50;3.77;;;3.60;;
27303;SDS011;14791;52.392;13.092;2023-03-08T02:22:20;3.50;;;3.30;;
27303;SDS011;14791;52.392;13.092;2023-03-08T02:24:50;3.00;;;2.90;;
27303;SDS011;14791;52.392;13.092;2023-03-08T02:27:20;3.10;;;3.00;;
27303;SDS011;14791;52.392;13.092;2023-03-08T02:29:53;3.47;;;3.27;;
27303;SDS011;14791;52.392;13.092;2023-03-08T02:32:22;3.57;;;3.37;;
27303;SDS011;14791;52.392;13.092;2023-03-08T02:34:52;3.77;;;3.50;;
27303;SDS011;14791;52.392;13.092;2023-03-08T02:37:21;3.87;;;3.67;;
27303;SDS011;14791;52.392;13.092;2023-03-08T02:39:50;3.80;;;3.50;;
27303;SDS011;14791;52.392;13.092;2023-03-08T02:42:20;3.47;;;3.33;;
27303;SDS011;14791;52.392;13.092;2023-03-08T02:44:49;4.00;;;3.80;;
27303;SDS011;14791;52.392;13.092;2023-03-08T02:47:18;3.30;;;3.20;;
27303;SDS011;14791;52.392;13.092;2023-03-08T02:49:47;3.30;;;3.20;;
27303;SDS011;14791;52.392;13.092;2023-03-08T02:52:16;3.80;;;3.50;;
27303;SDS011;14791;52.392;13.092;2023-03-08T02:54:45;3.30;;;3.20;;
27303;SDS011;14791;52.392;13.092;2023-03-08T02:57:14;3.40;;;3.30;;
27303;SDS011;14791;52.392;13.092;2023-03-08T02:59:44;3.10;;;3.00;;
27303;SDS011;14791;52.392;13.092;2023-03-08T03:02:13;3.97;;;3.67;;
27303;SDS011;14791;52.392;13.092;2023-03-08T03:04:42;4.27;;;3.23;;
27303;SDS011;14791;52.392;13.092;2023-03-08T03:07:12;3.10;;;3.00;;
27303;SDS011;14791;52.392;13.092;2023-03-08T03:09:41;3.07;;;2.97;;
27303;SDS011;14791;52.392;13.092;2023-03-08T03:12:10;3.20;;;3.10;;
27303;SDS011;14791;52.392;13.092;2023-03-08T03:14:39;3.50;;;3.30;;
27303;SDS011;14791;52.392;13.092;2023-03-08T03:17:09;3.57;;;3.37;;
27303;SDS011;14791;52.392;13.092;2023-03-08T03:19:38;3.53;;;3.33;;
27303;SDS011;14791;52.392;13.092;2023-03-08T03:22:06;3.60;;;3.30;;
27303;SDS011;14791;52.392;13.092;2023-03-08T03:24:35;3.27;;;3.17;;
27303;SDS011;14791;52.392;13.092;2023-03-08T03:27:05;3.20;;;3.00;;
27303;SDS011;14791;52.392;13.092;2023-03-08T03:29:36;3.13;;;3.03;;
27303;SDS011;14791;52.392;13.092;2023-03-08T03:32:10;3.53;;;3.13;;
27303;SDS011;14791;52.392;13.092;2023-03-08T03:34:39;2.90;;;2.77;;
27303;SDS011;14791;52.392;13.092;2023-03-08T03:37:08;3.03;;;2.83;;
27303;SDS011;14791;52.392;13.092;2023-03-08T03:39:38;3.33;;;3.17;;
27303;SDS011;14791;52.392;13.092;2023-03-08T03:42:09;2.97;;;2.87;;
27303;SDS011;14791;52.392;13.092;2023-03-08T03:44:41;3.20;;;3.00;;
27303;SDS011;14791;52.392;13.092;2023-03-08T03:47:12;3.47;;;3.37;;
27303;SDS011;14791;52.392;13.092;2023-03-08T03:49:42;3.10;;;2.83;;
27303;SDS011;14791;52.392;13.092;2023-03-08T03:52:13;2.93;;;2.83;;
27303;SDS011;14791;52.392;13.092;2023-03-08T03:54:44;2.77;;;2.67;;
27303;SDS011;14791;52.392;13.092;2023-03-08T03:57:13;3.10;;;3.00;;
27303;SDS011;14791;52.392;13.092;2023-03-08T03:59:43;2.70;;;2.60;;
27303;SDS011;14791;52.392;13.092;2023-03-08T04:02:12;3.20;;;3.10;;
27303;SDS011;14791;52.392;13.092;2023-03-08T04:04:43;2.97;;;2.87;;
27303;SDS011;14791;52.392;13.092;2023-03-08T04:07:12;3.10;;;2.97;;
27303;SDS011;14791;52.392;13.092;2023-03-08T04:09:50;3.00;;;2.90;;
27303;SDS011;14791;52.392;13.092;2023-03-08T04:12:19;3.13;;;2.93;;
27303;SDS011;14791;52.392;13.092;2023-03-08T04:14:48;2.87;;;2.77;;
27303;SDS011;14791;52.392;13.092;2023-03-08T04:17:17;2.83;;;2.73;;
27303;SDS011;14791;52.392;13.092;2023-03-08T04:19:48;3.03;;;2.93;;
27303;SDS011;14791;52.392;13.092;2023-03-08T04:22:17;2.70;;;2.60;;
27303;SDS011;14791;52.392;13.092;2023-03-08T04:24:51;3.50;;;3.30;;
27303;SDS011;14791;52.392;13.092;2023-03-08T04:27:21;4.90;;;3.00;;
27303;SDS011;14791;52.392;13.092;2023-03-08T04:29:52;2.93;;;2.70;;
27303;SDS011;14791;52.392;13.092;2023-03-08T04:32:21;2.60;;;2.57;;
27303;SDS011;14791;52.392;13.092;2023-03-08T04:34:54;2.97;;;2.83;;
27303;SDS011;14791;52.392;13.092;2023-03-08T04:37:25;2.90;;;2.80;;
27303;SDS011;14791;52.392;13.092;2023-03-08T04:39:56;3.30;;;3.20;;
27303;SDS011;14791;52.392;13.092;2023-03-08T04:42:25;3.27;;;3.03;;
27303;SDS011;14791;52.392;13.092;2023-03-08T04:44:54;3.33;;;3.23;;
27303;SDS011;14791;52.392;13.092;2023-03-08T04:47:25;3.00;;;2.90;;
27303;SDS011;14791;52.392;13.092;2023-03-08T04:49:54;3.07;;;2.97;;
27303;SDS011;14791;52.392;13.092;2023-03-08T04:52:23;3.10;;;2.90;;
27303;SDS011;14791;52.392;13.092;2023-03-08T04:54:52;3.27;;;3.07;;
27303;SDS011;14791;52.392;13.092;2023-03-08T04:57:23;2.60;;;2.53;;
27303;SDS011;14791;52.392;13.092;2023-03-08T04:59:53;2.83;;;2.73;;
27303;SDS011;14791;52.392;13.092;2023-03-08T05:02:22;4.40;;;2.80;;
27303;SDS011;14791;52.392;13.092;2023-03-08T05:04:51;3.40;;;3.20;;
27303;SDS011;14791;52.392;13.092;2023-03-08T05:07:21;2.97;;;2.87;;
27303;SDS011;14791;52.392;13.092;2023-03-08T05:09:51;3.17;;;3.07;;
27303;SDS011;14791;52.392;13.092;2023-03-08T05:12:20;3.33;;;3.23;;
27303;SDS011;14791;52.392;13.092;2023-03-08T05:14:50;3.00;;;2.90;;
27303;SDS011;14791;52.392;13.092;2023-03-08T05:17:20;2.70;;;2.60;;
27303;SDS011;14791;52.392;13.092;2023-03-08T05:19:49;2.83;;;2.73;;
27303;SDS011;14791;52.392;13.092;2023-03-08T05:22:19;3.07;;;2.97;;
27303;SDS011;14791;52.392;13.092;2023-03-08T05:24:49;3.10;;;3.00;;
27303;SDS011;14791;52.392;13.092;2023-03-08T05:27:19;3.13;;;3.03;;
27303;SDS011;14791;52.392;13.092;2023-03-08T05:29:50;2.83;;;2.73;;
27303;SDS011;14791;52.392;13.092;2023-03-08T05:32:19;2.83;;;2.73;;
27303;SDS011;14791;52.392;13.092;2023-03-08T05:34:50;3.33;;;3.20;;
27303;SDS011;14791;52.392;13.092;2023-03-08T05:37:21;3.20;;;3.10;;
27303;SDS011;14791;52.392;13.092;2023-03-08T05:39:51;3.10;;;3.00;;
27303;SDS011;14791;52.392;13.092;2023-03-08T05:42:22;2.90;;;2.80;;
27303;SDS011;14791;52.392;13.092;2023-03-08T05:44:51;3.10;;;3.00;;
27303;SDS011;14791;52.392;13.092;2023-03-08T05:47:22;3.60;;;3.40;;
27303;SDS011;14791;52.392;13.092;2023-03-08T05:49:51;3.50;;;3.40;;
27303;SDS011;14791;52.392;13.092;2023-03-08T05:52:20;3.53;;;3.43;;
27303;SDS011;14791;52.392;13.092;2023-03-08T05:54:52;3.50;;;3.13;;
27303;SDS011;14791;52.392;13.092;2023-03-08T05:57:21;3.93;;;3.73;;
27303;SDS011;14791;52.392;13.092;2023-03-08T05:59:51;2.80;;;2.70;;
27303;SDS011;14791;52.392;13.092;2023-03-08T06:02:21;3.33;;;3.23;;
27303;SDS011;14791;52.392;13.092;2023-03-08T06:04:52;3.37;;;3.17;;
27303;SDS011;14791;52.392;13.092;2023-03-08T06:07:24;3.20;;;3.10;;
27303;SDS011;14791;52.392;13.092;2023-03-08T06:09:58;3.20;;;3.10;;
27303;SDS011;14791;52.392;13.092;2023-03-08T06:12:27;2.97;;;2.87;;
27303;SDS011;14791;52.392;13.092;2023-03-08T06:14:58;3.67;;;3.17;;
27303;SDS011;14791;52.392;13.092;2023-03-08T06:17:28;2.87;;;2.77;;
27303;SDS011;14791;52.392;13.092;2023-03-08T06:19:58;3.13;;;3.03;;
27303;SDS011;14791;52.392;13.092;2023-03-08T06:22:27;2.70;;;2.60;;
27303;SDS011;14791;52.392;13.092;2023-03-08T06:24:56;3.47;;;3.30;;
27303;SDS011;14791;52.392;13.092;2023-03-08T06:27:27;3.10;;;3.00;;
27303;SDS011;14791;52.392;13.092;2023-03-08T06:29:58;3.20;;;3.10;;
27303;SDS011;14791;52.392;13.092;2023-03-08T06:32:28;3.67;;;3.47;;
27303;SDS011;14791;52.392;13.092;2023-03-08T06:34:58;3.63;;;3.43;;
27303;SDS011;14791;52.392;13.092;2023-03-08T06:37:31;3.63;;;3.43;;
27303;SDS011;14791;52.392;13.092;2023-03-08T06:40:00;3.83;;;3.63;;
27303;SDS011;14791;52.392;13.092;2023-03-08T06:42:31;3.60;;;3.50;;
27303;SDS011;14791;52.392;13.092;2023-03-08T06:45:00;3.30;;;3.13;;
27303;SDS011;14791;52.392;13.092;2023-03-08T06:47:29;3.60;;;3.50;;
27303;SDS011;14791;52.392;13.092;2023-03-08T06:49:59;4.07;;;3.97;;
27303;SDS011;14791;52.392;13.092;2023-03-08T06:52:28;3.50;;;3.40;;
27303;SDS011;14791;52.392;13.092;2023-03-08T06:55:05;3.93;;;3.83;;
27303;SDS011;14791;52.392;13.092;2023-03-08T06:57:35;4.43;;;4.27;;
27303;SDS011;14791;52.392;13.092;2023-03-08T07:00:04;4.30;;;4.10;;
27303;SDS011;14791;52.392;13.092;2023-03-08T07:02:35;4.30;;;4.10;;
27303;SDS011;14791;52.392;13.092;2023-03-08T07:05:04;4.30;;;4.10;;
27303;SDS011;14791;52.392;13.092;2023-03-08T07:07:33;4.30;;;4.13;;
27303;SDS011;14791;52.392;13.092;2023-03-08T07:10:03;4.47;;;4.20;;
27303;SDS011;14791;52.392;13.092;2023-03-08T07:12:32;4.63;;;4.43;;
27303;SDS011;14791;52.392;13.092;2023-03-08T07:15:02;3.90;;;3.80;;
27303;SDS011;14791;52.392;13.092;2023-03-08T07:17:32;4.30;;;4.10;;
27303;SDS011;14791;52.392;13.092;2023-03-08T07:20:02;4.47;;;4.30;;
27303;SDS011;14791;52.392;13.092;2023-03-08T07:22:34;4.43;;;4.10;;
27303;SDS011;14791;52.392;13.092;2023-03-08T07:25:03;4.33;;;4.13;;
27303;SDS011;14791;52.392;13.092;2023-03-08T07:27:32;4.07;;;3.97;;
27303;SDS011;14791;52.392;13.092;2023-03-08T07:30:01;4.67;;;4.47;;
27303;SDS011;14791;52.392;13.092;2023-03-08T07:32:31;4.13;;;4.03;;
27303;SDS011;14791;52.392;13.092;2023-03-08T07:35:00;4.30;;;4.20;;
27303;SDS011;14791;52.392;13.092;2023-03-08T07:37:29;4.50;;;4.30;;
27303;SDS011;14791;52.392;13.092;2023-03-08T07:39:58;4.60;;;4.30;;
27303;SDS011;14791;52.392;13.092;2023-03-08T07:42:27;3.93;;;3.83;;
27303;SDS011;14791;52.392;13.092;2023-03-08T07:44:58;4.97;;;4.77;;
27303;SDS011;14791;52.392;13.092;2023-03-08T07:47:27;4.50;;;4.30;;
27303;SDS011;14791;52.392;13.092;2023-03-08T07:49:59;5.07;;;4.67;;
27303;SDS011;14791;52.392;13.092;2023-03-08T07:52:28;4.60;;;4.50;;
27303;SDS011;14791;52.392;13.092;2023-03-08T07:54:58;3.93;;;3.83;;
27303;SDS011;14791;52.392;13.092;2023-03-08T07:57:28;3.83;;;3.70;;
27303;SDS011;14791;52.392;13.092;2023-03-08T07:59:57;4.00;;;3.90;;
27303;SDS011;14791;52.392;13.092;2023-03-08T08:02:26;4.07;;;3.97;;
27303;SDS011;14791;52.392;13.092;2023-03-08T08:04:55;3.93;;;3.83;;
27303;SDS011;14791;52.392;13.092;2023-03-08T08:07:24;3.40;;;3.20;;
27303;SDS011;14791;52.392;13.092;2023-03-08T08:09:53;3.47;;;3.37;;
27303;SDS011;14791;52.392;13.092;2023-03-08T08:12:22;3.50;;;3.40;;
27303;SDS011;14791;52.392;13.092;2023-03-08T08:14:51;3.87;;;3.67;;
27303;SDS011;14791;52.392;13.092;2023-03-08T08:17:20;3.60;;;3.40;;
27303;SDS011;14791;52.392;13.092;2023-03-08T08:19:50;3.53;;;3.43;;
27303;SDS011;14791;52.392;13.092;2023-03-08T08:22:19;3.50;;;3.37;;
27303;SDS011;14791;52.392;13.092;2023-03-08T08:24:48;3.53;;;3.43;;
27303;SDS011;14791;52.392;13.092;2023-03-08T08:27:17;3.77;;;3.67;;
27303;SDS011;14791;52.392;13.092;2023-03-08T08:29:45;3.53;;;3.43;;
27303;SDS011;14791;52.392;13.092;2023-03-08T08:32:16;3.50;;;3.33;;
27303;SDS011;14791;52.392;13.092;2023-03-08T08:34:45;3.07;;;2.97;;
27303;SDS011;14791;52.392;13.092;2023-03-08T08:37:14;4.10;;;3.90;;
27303;SDS011;14791;52.392;13.092;2023-03-08T08:39:43;3.90;;;3.60;;
27303;SDS011;14791;52.392;13.092;2023-03-08T08:42:11;3.40;;;3.30;;
27303;SDS011;14791;52.392;13.092;2023-03-08T08:44:40;3.50;;;3.40;;
27303;SDS011;14791;52.392;13.092;2023-03-08T08:47:09;3.13;;;3.03;;
27303;SDS011;14791;52.392;13.092;2023-03-08T08:49:38;3.60;;;3.50;;
27303;SDS011;14791;52.392;13.092;2023-03-08T08:52:07;3.90;;;3.70;;
27303;SDS011;14791;52.392;13.092;2023-03-08T08:54:36;3.60;;;3.50;;
27303;SDS011;14791;52.392;13.092;2023-03-08T08:57:06;3.10;;;3.00;;
27303;SDS011;14791;52.392;13.092;2023-03-08T08:59:34;3.20;;;3.10;;
27303;SDS011;14791;52.392;13.092;2023-03-08T09:02:03;3.30;;;3.10;;
27303;SDS011;14791;52.392;13.092;2023-03-08T09:04:32;3.57;;;3.47;;
27303;SDS011;14791;52.392;13.092;2023-03-08T09:07:01;4.00;;;3.90;;
27303;SDS011;14791;52.392;13.092;2023-03-08T09:09:30;4.07;;;3.90;;
27303;SDS011;14791;52.392;13.092;2023-03-08T09:11:59;3.97;;;3.77;;
27303;SDS011;14791;52.392;13.092;2023-03-08T09:14:28;4.20;;;4.00;;
27303;SDS011;14791;52.392;13.092;2023-03-08T09:16:57;3.23;;;3.13;;
27303;SDS011;14791;52.392;13.092;2023-03-08T09:19:26;3.40;;;3.30;;
27303;SDS011;14791;52.392;13.092;2023-03-08T09:21:55;3.73;;;3.53;;
27303;SDS011;14791;52.392;13.092;2023-03-08T09:24:24;3.40;;;3.30;;
27303;SDS011;14791;52.392;13.092;2023-03-08T09:26:53;4.00;;;3.80;;
27303;SDS011;14791;52.392;13.092;2023-03-08T09:29:23;3.77;;;3.67;;
27303;SDS011;14791;52.392;13.092;2023-03-08T09:31:53;3.77;;;3.67;;
27303;SDS011;14791;52.392;13.092;2023-03-08T09:34:21;3.50;;;3.40;;
27303;SDS011;14791;52.392;13.092;2023-03-08T09:36:50;3.43;;;3.23;;
27303;SDS011;14791;52.392;13.092;2023-03-08T09:39:19;3.33;;;3.13;;
27303;SDS011;14791;52.392;13.092;2023-03-08T09:41:58;3.27;;;3.17;;
27303;SDS011;14791;52.392;13.092;2023-03-08T09:47:21;3.37;;;3.13;;
27303;SDS011;14791;52.392;13.092;2023-03-08T09:50:55;3.40;;;3.30;;
27303;SDS011;14791;52.392;13.092;2023-03-08T09:55:24;3.23;;;3.07;;
27303;SDS011;14791;52.392;13.092;2023-03-08T09:58:01;3.23;;;3.13;;
27303;SDS011;14791;52.392;13.092;2023-03-08T10:00:36;2.87;;;2.80;;
27303;SDS011;14791;52.392;13.092;2023-03-08T10:03:23;3.50;;;3.30;;
27303;SDS011;14791;52.392;13.092;2023-03-08T10:09:30;2.70;;;2.60;;
27303;SDS011;14791;52.392;13.092;2023-03-08T10:14:16;2.80;;;2.67;;
27303;SDS011;14791;52.392;13.092;2023-03-08T10:16:52;4.10;;;2.20;;
27303;SDS011;14791;52.392;13.092;2023-03-08T10:19:33;2.30;;;2.20;;
27303;SDS011;14791;52.392;13.092;2023-03-08T10:22:07;2.80;;;2.23;;
27303;SDS011;14791;52.392;13.092;2023-03-08T10:24:47;2.20;;;2.07;;
27303;SDS011;14791;52.392;13.092;2023-03-08T10:27:19;2.13;;;2.10;;
27303;SDS011;14791;52.392;13.092;2023-03-08T10:29:54;2.70;;;2.50;;
27303;SDS011;14791;52.392;13.092;2023-03-08T10:32:25;4.23;;;3.10;;
27303;SDS011;14791;52.392;13.092;2023-03-08T10:35:01;2.00;;;2.00;;
27303;SDS011;14791;52.392;13.092;2023-03-08T10:37:32;2.20;;;2.10;;
27303;SDS011;14791;52.392;13.092;2023-03-08T10:40:04;2.20;;;2.10;;
27303;SDS011;14791;52.392;13.092;2023-03-08T10:42:35;1.77;;;1.67;;
27303;SDS011;14791;52.392;13.092;2023-03-08T10:45:12;2.30;;;2.20;;
27303;SDS011;14791;52.392;13.092;2023-03-08T10:47:51;1.90;;;1.80;;
27303;SDS011;14791;52.392;13.092;2023-03-08T10:50:15;2.50;;;2.30;;
27303;SDS011;14791;52.392;13.092;2023-03-08T10:52:46;2.57;;;2.43;;
27303;SDS011;14791;52.392;13.092;2023-03-08T10:55:27;3.30;;;2.43;;
27303;SDS011;14791;52.392;13.092;2023-03-08T10:58:00;2.87;;;2.77;;
27303;SDS011;14791;52.392;13.092;2023-03-08T11:00:36;2.30;;;2.30;;
27303;SDS011;14791;52.392;13.092;2023-03-08T11:03:16;1.97;;;1.97;;
27303;SDS011;14791;52.392;13.092;2023-03-08T11:06:10;3.07;;;2.50;;
27303;SDS011;14791;52.392;13.092;2023-03-08T11:08:51;1.90;;;1.90;;
27303;SDS011;14791;52.392;13.092;2023-03-08T11:11:22;1.90;;;1.90;;
27303;SDS011;14791;52.392;13.092;2023-03-08T11:13:52;2.70;;;2.60;;
27303;SDS011;14791;52.392;13.092;2023-03-08T11:19:12;3.07;;;2.63;;
27303;SDS011;14791;52.392;13.092;2023-03-08T11:22:03;2.43;;;2.30;;
27303;SDS011;14791;52.392;13.092;2023-03-08T11:24:51;1.70;;;1.70;;
27303;SDS011;14791;52.392;13.092;2023-03-08T11:30:13;2.30;;;2.30;;
27303;SDS011;14791;52.392;13.092;2023-03-08T11:32:39;2.47;;;2.37;;
27303;SDS011;14791;52.392;13.092;2023-03-08T11:52:12;2.60;;;2.60;;
27303;SDS011;14791;52.392;13.092;2023-03-08T11:57:33;3.07;;;2.97;;
27303;SDS011;14791;52.392;13.092;2023-03-08T12:00:18;3.03;;;2.83;;
27303;SDS011;14791;52.392;13.092;2023-03-08T12:02:49;2.70;;;2.50;;
27303;SDS011;14791;52.392;13.092;2023-03-08T12:07:54;2.80;;;2.60;;
27303;SDS011;14791;52.392;13.092;2023-03-08T12:13:31;2.60;;;2.50;;
27303;SDS011;14791;52.392;13.092;2023-03-08T12:21:40;4.90;;;2.90;;
27303;SDS011;14791;52.392;13.092;2023-03-08T12:24:27;3.53;;;3.33;;
27303;SDS011;14791;52.392;13.092;2023-03-08T12:27:04;3.90;;;3.70;;
27303;SDS011;14791;52.392;13.092;2023-03-08T12:29:56;3.53;;;3.43;;
27303;SDS011;14791;52.392;13.092;2023-03-08T12:32:12;3.23;;;3.13;;
27303;SDS011;14791;52.392;13.092;2023-03-08T12:34:44;3.23;;;3.00;;
27303;SDS011;14791;52.392;13.092;2023-03-08T12:37:21;2.83;;;2.63;;
27303;SDS011;14791;52.392;13.092;2023-03-08T12:39:55;2.97;;;2.87;;
27303;SDS011;14791;52.392;13.092;2023-03-08T12:42:31;2.97;;;2.87;;
27303;SDS011;14791;52.392;13.092;2023-03-08T12:47:39;2.87;;;2.77;;
27303;SDS011;14791;52.392;13.092;2023-03-08T12:50:09;3.00;;;2.90;;
27303;SDS011;14791;52.392;13.092;2023-03-08T12:52:40;2.60;;;2.50;;
27303;SDS011;14791;52.392;13.092;2023-03-08T12:55:17;2.77;;;2.67;;
27303;SDS011;14791;52.392;13.092;2023-03-08T12:57:50;3.13;;;2.93;;
27303;SDS011;14791;52.392;13.092;2023-03-08T13:00:23;2.90;;;2.70;;
27303;SDS011;14791;52.392;13.092;2023-03-08T13:03:23;3.13;;;3.03;;
27303;SDS011;14791;52.392;13.092;2023-03-08T13:05:43;2.70;;;2.60;;
27303;SDS011;14791;52.392;13.092;2023-03-08T13:16:29;2.80;;;2.70;;
27303;SDS011;14791;52.392;13.092;2023-03-08T13:21:52;2.53;;;2.43;;
27303;SDS011;14791;52.392;13.092;2023-03-08T13:24:41;2.83;;;2.73;;
27303;SDS011;14791;52.392;13.092;2023-03-08T13:27:37;2.73;;;2.63;;
27303;SDS011;14791;52.392;13.092;2023-03-08T13:30:16;2.77;;;2.67;;
27303;SDS011;14791;52.392;13.092;2023-03-08T13:32:49;2.57;;;2.47;;
27303;SDS011;14791;52.392;13.092;2023-03-08T13:35:20;2.80;;;2.70;;
27303;SDS011;14791;52.392;13.092;2023-03-08T13:37:50;3.50;;;3.37;;
27303;SDS011;14791;52.392;13.092;2023-03-08T13:40:25;3.50;;;3.40;;
27303;SDS011;14791;52.392;13.092;2023-03-08T13:42:57;3.30;;;3.20;;
27303;SDS011;14791;52.392;13.092;2023-03-08T13:45:32;3.27;;;3.17;;
27303;SDS011;14791;52.392;13.092;2023-03-08T13:48:05;2.90;;;2.80;;
27303;SDS011;14791;52.392;13.092;2023-03-08T13:50:37;3.90;;;3.70;;
27303;SDS011;14791;52.392;13.092;2023-03-08T13:53:16;3.40;;;3.20;;
27303;SDS011;14791;52.392;13.092;2023-03-08T13:55:46;2.87;;;2.77;;
27303;SDS011;14791;52.392;13.092;2023-03-08T13:58:24;2.83;;;2.73;;
27303;SDS011;14791;52.392;13.092;2023-03-08T14:00:58;3.00;;;2.90;;
27303;SDS011;14791;52.392;13.092;2023-03-08T14:03:38;2.70;;;2.60;;
27303;SDS011;14791;52.392;13.092;2023-03-08T14:08:51;3.90;;;3.80;;
27303;SDS011;14791;52.392;13.092;2023-03-08T14:11:23;2.80;;;2.70;;
27303;SDS011;14791;52.392;13.092;2023-03-08T14:13:54;2.83;;;2.73;;
27303;SDS011;14791;52.392;13.092;2023-03-08T14:16:35;3.10;;;3.00;;
27303;SDS011;14791;52.392;13.092;2023-03-08T14:21:56;3.50;;;3.30;;
27303;SDS011;14791;52.392;13.092;2023-03-08T14:24:33;3.30;;;3.20;;
27303;SDS011;14791;52.392;13.092;2023-03-08T14:27:04;3.13;;;3.03;;
27303;SDS011;14791;52.392;13.092;2023-03-08T14:29:35;3.30;;;3.20;;
27303;SDS011;14791;52.392;13.092;2023-03-08T14:34:43;3.30;;;3.20;;
27303;SDS011;14791;52.392;13.092;2023-03-08T14:37:24;3.70;;;3.60;;
27303;SDS011;14791;52.392;13.092;2023-03-08T14:39:55;3.63;;;3.47;;
27303;SDS011;14791;52.392;13.092;2023-03-08T14:42:43;3.80;;;3.70;;
27303;SDS011;14791;52.392;13.092;2023-03-08T14:45:19;3.33;;;3.23;;
27303;SDS011;14791;52.392;13.092;2023-03-08T14:47:52;3.10;;;3.00;;
27303;SDS011;14791;52.392;13.092;2023-03-08T14:50:25;3.00;;;2.90;;
27303;SDS011;14791;52.392;13.092;2023-03-08T14:52:59;3.03;;;2.93;;
27303;SDS011;14791;52.392;13.092;2023-03-08T14:55:31;2.60;;;2.40;;
27303;SDS011;14791;52.392;13.092;2023-03-08T14:58:09;2.70;;;2.60;;
27303;SDS011;14791;52.392;13.092;2023-03-08T15:00:52;3.23;;;3.13;;
27303;SDS011;14791;52.392;13.092;2023-03-08T15:03:22;3.60;;;3.40;;
27303;SDS011;14791;52.392;13.092;2023-03-08T15:05:52;3.70;;;3.50;;
27303;SDS011;14791;52.392;13.092;2023-03-08T15:08:22;4.47;;;4.20;;
27303;SDS011;14791;52.392;13.092;2023-03-08T15:10:52;3.73;;;3.53;;
27303;SDS011;14791;52.392;13.092;2023-03-08T15:13:21;2.93;;;2.83;;
27303;SDS011;14791;52.392;13.092;2023-03-08T15:15:50;3.67;;;3.37;;
27303;SDS011;14791;52.392;13.092;2023-03-08T15:18:19;3.23;;;3.13;;
27303;SDS011;14791;52.392;13.092;2023-03-08T15:20:49;2.90;;;2.80;;
27303;SDS011;14791;52.392;13.092;2023-03-08T15:23:22;3.03;;;2.93;;
27303;SDS011;14791;52.392;13.092;2023-03-08T15:25:53;2.63;;;2.53;;
27303;SDS011;14791;52.392;13.092;2023-03-08T15:28:23;2.53;;;2.43;;
27303;SDS011;14791;52.392;13.092;2023-03-08T15:30:52;2.93;;;2.83;;
27303;SDS011;14791;52.392;13.092;2023-03-08T15:33:21;4.20;;;4.00;;
27303;SDS011;14791;52.392;13.092;2023-03-08T15:35:51;3.10;;;3.00;;
27303;SDS011;14791;52.392;13.092;2023-03-08T15:38:20;3.90;;;3.80;;
27303;SDS011;14791;52.392;13.092;2023-03-08T15:40:50;3.53;;;3.37;;
27303;SDS011;14791;52.392;13.092;2023-03-08T15:43:19;3.40;;;3.30;;
27303;SDS011;14791;52.392;13.092;2023-03-08T15:45:48;3.80;;;3.60;;
27303;SDS011;14791;52.392;13.092;2023-03-08T15:48:17;3.07;;;2.97;;
27303;SDS011;14791;52.392;13.092;2023-03-08T15:50:46;2.73;;;2.63;;
27303;SDS011;14791;52.392;13.092;2023-03-08T15:53:15;3.03;;;2.93;;
27303;SDS011;14791;52.392;13.092;2023-03-08T15:55:44;2.63;;;2.53;;
27303;SDS011;14791;52.392;13.092;2023-03-08T15:58:13;2.47;;;2.37;;
27303;SDS011;14791;52.392;13.092;2023-03-08T16:00:42;3.77;;;3.53;;
27303;SDS011;14791;52.392;13.092;2023-03-08T16:03:11;2.83;;;2.73;;
27303;SDS011;14791;52.392;13.092;2023-03-08T16:05:40;2.60;;;2.50;;
27303;SDS011;14791;52.392;13.092;2023-03-08T16:08:09;3.17;;;3.07;;
27303;SDS011;14791;52.392;13.092;2023-03-08T16:10:39;2.80;;;2.70;;